Domov               UVHVVR             MKGP            O straneh              
ZDRAVSTVENO VARSTVO RASTLIN
  MREŽA AGROMET. POSTAJ
 ► PROGNOSTIČNA OBVESTILA
AGROMETEOROLOŠKI PODATKI -
ARSO
OBVLADOVANJE TVEGANJ ZARADI
NEUGODNIH VREMENSKIH RAZMER
  ► NARAVNE NESREČE
  ► SUŠA/MOČA
  ► NAMAKANJE
  ► ŽLED (gozdarstvo)
KARTOGRAFSKI PRIKAZI
SPLETNE POVEZAVE
PROJEKTI IN PUBLIKACIJE

AGROMETEOROLOŠKA MREŽA: VREMENSKE POSTAJE IN FENOLOŠKA OPAZOVANJA

Pregled podatkov za lokacijo Vidonci, meteorološka postaja 42838

Pregled senzorjev na lokaciji

ID Ime Zadnja
vrednost
Datum
zadnje
spremembe
Tip
senzorja
2110 Omočenost lista (U) 1 U 25.3.2019 00:59 A730WET
2112 Relativna vlaga 2 m (% RH) 53,97 % RH 25.3.2019 01:00 50YA
2111 Temperatura 2 m (°C) 12,49 °C 25.3.2019 01:00 50YA

Pregled podatkov zadnjih 24 ur

Zap.
št.
Datum in čas Vidonci
Omočenost
lista
Relativna
vlaga
2
m
Temperatura
2
m
1 25.3.2019 00:30
2 25.3.2019 00:00 1 54 12,5
3 24.3.2019 23:30 0 51,7 13,1
4 24.3.2019 23:00 0 50,3 13,2
5 24.3.2019 22:30 0 46,5 13,3
6 24.3.2019 22:00 0 43 13,5
7 24.3.2019 21:30 0 43,4 13,2
8 24.3.2019 21:00 0 41,3 13,6
9 24.3.2019 20:30 0 39,9 14,1
10 24.3.2019 20:00 0 39,7 14,4
11 24.3.2019 19:30 0 41,5 13,9
12 24.3.2019 19:00 0 37,9 15,2
13 24.3.2019 18:30 0 33,5 16,9
14 24.3.2019 18:00 0 31 18,1
15 24.3.2019 17:30 0 30,1 18,8
16 24.3.2019 17:00 0 29,4 19,2
17 24.3.2019 16:30 0 29 19,7
18 24.3.2019 16:00 0 28,2 19,9
19 24.3.2019 15:30 0 27,3 20
20 24.3.2019 15:00 0 28,3 20
21 24.3.2019 14:30 0 29,7 19,7
22 24.3.2019 14:00 0 30,8 19,4
23 24.3.2019 13:30 0 31,7 19,6
24 24.3.2019 13:00 0 30,8 19,3
25 24.3.2019 12:30 0 32 19,4
26 24.3.2019 12:00 0 31,1 18,7
27 24.3.2019 11:30 0 33 18,6
28 24.3.2019 11:00 0 34,4 18,2
29 24.3.2019 10:30 0 36,8 17,4
30 24.3.2019 10:00 0 38,3 17
31 24.3.2019 09:30 0 43,1 15,9
32 24.3.2019 09:00 0 46,2 14,9
33 24.3.2019 08:30 0 52,2 12,2
34 24.3.2019 08:00 0 53,1 13,1
35 24.3.2019 07:30 0 62,9 10,9
36 24.3.2019 07:00 1 62,4 9,4
37 24.3.2019 06:30 9 69,2 6,5
38 24.3.2019 06:00 10 69,7 6,1
39 24.3.2019 05:30 10 67,2 6,6
40 24.3.2019 05:00 7 63,9 7,4
41 24.3.2019 04:30 3 61 8,1
42 24.3.2019 04:00 4 61,2 8
43 24.3.2019 03:30 4 60,2 8,3
44 24.3.2019 03:00 6 61,9 7,8
45 24.3.2019 02:30 6 63 7,6
46 24.3.2019 02:00 3 60,8 8,2
47 24.3.2019 01:30 2 58,1 8,8
48 24.3.2019 01:00 3 60,3 8,2
© 2011 Ministrstvo za kmetijstvo, gozdarstvo in prehrano. Vse pravice pridržane.